createdAt,value
2019-02-06T00:02:37.712Z,23.1
2019-02-06T00:05:43.814Z,23.1
2019-02-06T00:08:49.881Z,23
2019-02-06T00:11:55.931Z,23
2019-02-06T00:15:02.304Z,23
2019-02-06T00:18:08.516Z,23
2019-02-06T00:21:14.466Z,23
2019-02-06T00:24:23.619Z,23
2019-02-06T00:27:32.365Z,23
2019-02-06T00:30:38.298Z,23
2019-02-06T00:33:45.560Z,23
2019-02-06T00:36:51.514Z,22.9
2019-02-06T00:39:57.487Z,22.9
2019-02-06T00:43:03.487Z,22.9
2019-02-06T00:46:12.099Z,22.9
2019-02-06T00:49:18.182Z,22.9
2019-02-06T00:52:24.256Z,22.9
2019-02-06T00:55:32.279Z,22.8
2019-02-06T00:58:38.192Z,22.9
2019-02-06T01:01:44.110Z,22.8
2019-02-06T01:04:50.009Z,22.8
2019-02-06T01:07:56.024Z,22.7
2019-02-06T01:11:02.116Z,22.7
2019-02-06T01:14:08.033Z,22.7
2019-02-06T01:17:14.219Z,22.7
2019-02-06T01:20:20.215Z,22.7
2019-02-06T01:23:26.249Z,22.7
2019-02-06T01:26:32.855Z,22.7
2019-02-06T01:29:38.894Z,22.7
2019-02-06T01:32:44.948Z,22.7
2019-02-06T01:35:53.265Z,22.7
2019-02-06T01:38:59.316Z,22.7
2019-02-06T01:42:08.129Z,22.7
2019-02-06T01:45:14.092Z,22.7
2019-02-06T01:48:20.173Z,22.7
2019-02-06T01:51:26.157Z,22.7
2019-02-06T01:54:32.081Z,22.7
2019-02-06T01:57:38.150Z,22.8
2019-02-06T02:00:44.158Z,22.8
2019-02-06T02:03:50.161Z,22.8
2019-02-06T02:06:57.946Z,22.8
2019-02-06T02:10:03.883Z,22.8
2019-02-06T02:13:09.922Z,22.8
2019-02-06T02:16:16.447Z,22.8
2019-02-06T02:19:25.498Z,22.8
2019-02-06T02:22:31.382Z,22.9
2019-02-06T02:25:37.411Z,22.9
2019-02-06T02:28:43.373Z,23
2019-02-06T02:31:49.372Z,23
2019-02-06T02:34:55.395Z,23
2019-02-06T02:38:02.937Z,23
2019-02-06T02:41:08.935Z,23.1
2019-02-06T02:44:14.911Z,23.1
2019-02-06T02:47:20.937Z,23.1
2019-02-06T02:50:26.891Z,23.1
2019-02-06T02:53:32.847Z,23.1
2019-02-06T02:56:41.712Z,23.2
2019-02-06T02:59:51.833Z,23.2
2019-02-06T03:03:00.822Z,23.2
2019-02-06T03:06:06.849Z,23.2
2019-02-06T03:09:12.852Z,23.2
2019-02-06T03:12:18.724Z,23.2
2019-02-06T03:15:24.988Z,23.3
2019-02-06T03:18:30.980Z,23.3
2019-02-06T03:21:37.607Z,23.3
2019-02-06T03:24:43.616Z,23.3
2019-02-06T03:27:49.544Z,23.3
2019-02-06T03:30:57.388Z,23.3
2019-02-06T03:34:04.890Z,23.3
2019-02-06T03:37:11.073Z,23.4
2019-02-06T03:40:17.037Z,23.4
2019-02-06T03:43:22.920Z,23.4
2019-02-06T03:46:28.950Z,23.4
2019-02-06T03:49:34.897Z,23.4
2019-02-06T03:52:45.317Z,23.4
2019-02-06T03:55:51.270Z,23.4
2019-02-06T03:58:57.205Z,23.5
2019-02-06T04:02:04.014Z,23.5
2019-02-06T04:05:12.825Z,23.6
2019-02-06T04:08:21.765Z,23.6
2019-02-06T04:11:27.720Z,23.7
2019-02-06T04:14:33.660Z,23.7
2019-02-06T04:17:39.645Z,23.8
2019-02-06T04:20:45.603Z,23.8
2019-02-06T04:23:53.395Z,23.9
2019-02-06T04:26:59.481Z,23.9
2019-02-06T04:30:05.425Z,23.9
2019-02-06T04:33:11.354Z,24
2019-02-06T04:36:17.299Z,24
2019-02-06T04:39:23.261Z,24
2019-02-06T04:42:29.331Z,24.1
2019-02-06T04:45:35.705Z,24.1
2019-02-06T04:48:41.660Z,24.2
2019-02-06T04:51:47.610Z,24.2
2019-02-06T04:54:55.718Z,24.2
2019-02-06T04:58:01.844Z,24.3
2019-02-06T05:01:07.842Z,24.2
2019-02-06T05:04:14.019Z,24.3
2019-02-06T05:07:20.124Z,24.3
2019-02-06T05:10:26.216Z,24.4
2019-02-06T05:13:32.200Z,24.4
2019-02-06T05:16:38.142Z,24.4
2019-02-06T05:19:44.123Z,24.4
2019-02-06T05:22:53.106Z,24.4
2019-02-06T05:26:01.456Z,24.4
2019-02-06T05:29:07.477Z,24.5
2019-02-06T05:32:13.417Z,24.5
2019-02-06T05:35:19.845Z,24.5
2019-02-06T05:38:25.864Z,24.5
2019-02-06T05:41:31.847Z,24.5
2019-02-06T05:44:37.826Z,24.6
2019-02-06T05:47:43.797Z,24.6
2019-02-06T05:50:49.903Z,24.6
2019-02-06T05:53:58.784Z,24.5
2019-02-06T05:57:05.281Z,24.5
2019-02-06T06:00:11.311Z,24.6
2019-02-06T06:03:17.409Z,24.7
2019-02-06T06:06:25.504Z,24.7
2019-02-06T06:09:31.447Z,24.7
2019-02-06T06:12:37.507Z,24.8
2019-02-06T06:15:43.995Z,24.8
2019-02-06T06:18:49.886Z,24.9
2019-02-06T06:21:55.828Z,24.8
2019-02-06T06:25:01.769Z,24.9
2019-02-06T06:28:07.666Z,24.9
2019-02-06T06:31:13.670Z,25
2019-02-06T06:34:19.518Z,25
2019-02-06T06:37:25.538Z,25.1
2019-02-06T06:40:31.404Z,25.1
2019-02-06T06:43:37.349Z,25.1
2019-02-06T06:46:44.510Z,25.2
2019-02-06T06:49:50.393Z,25.3
2019-02-06T06:52:56.322Z,25.3
2019-02-06T06:56:03.598Z,25.3
2019-02-06T06:59:09.557Z,25.4
2019-02-06T07:02:15.522Z,25.5
2019-02-06T07:05:21.407Z,25.5
2019-02-06T07:08:27.400Z,25.5
2019-02-06T07:11:33.247Z,25.5
2019-02-06T07:14:39.167Z,25.6
2019-02-06T07:17:45.681Z,25.6
2019-02-06T07:20:51.843Z,25.7
2019-02-06T07:23:58.110Z,25.7
2019-02-06T07:27:06.072Z,25.8
2019-02-06T07:30:12.026Z,25.9
2019-02-06T07:33:17.986Z,25.9
2019-02-06T07:36:23.918Z,25.9
2019-02-06T07:39:29.759Z,25.9
2019-02-06T07:42:35.749Z,25.9
2019-02-06T07:45:41.986Z,25.9
2019-02-06T07:48:47.849Z,25.9
2019-02-06T07:51:53.788Z,26
2019-02-06T07:54:59.720Z,26
2019-02-06T07:58:08.202Z,26
2019-02-06T08:01:14.232Z,26
2019-02-06T08:04:20.145Z,26
2019-02-06T08:07:26.772Z,26
2019-02-06T08:10:33.658Z,26.1
2019-02-06T08:13:39.661Z,26
2019-02-06T08:16:46.743Z,26
2019-02-06T08:19:52.643Z,26.1
2019-02-06T08:23:01.021Z,26.2
2019-02-06T08:26:06.977Z,26.1
2019-02-06T08:29:14.678Z,26.2
2019-02-06T08:32:20.628Z,26.2
2019-02-06T08:35:26.556Z,26.2
2019-02-06T08:38:32.730Z,26.2
2019-02-06T08:41:52.727Z,26.3
2019-02-06T08:44:58.690Z,26.3
2019-02-06T08:48:05.025Z,26.3
2019-02-06T08:51:11.002Z,26.3
2019-02-06T08:54:20.232Z,26.3
2019-02-06T08:57:26.635Z,26.3
2019-02-06T09:00:32.559Z,26.4
2019-02-06T09:03:39.853Z,26.3
2019-02-06T09:06:48.108Z,26.4
2019-02-06T09:09:54.639Z,26.4
2019-02-06T09:13:01.531Z,26.3
2019-02-06T09:16:08.562Z,26.3
2019-02-06T09:19:14.488Z,26.4
2019-02-06T09:22:20.374Z,26.3
2019-02-06T09:25:26.353Z,26.3
2019-02-06T09:28:32.282Z,26.3
2019-02-06T09:31:41.588Z,26.3
2019-02-06T09:34:50.181Z,26.3
2019-02-06T09:37:56.021Z,26.2
2019-02-06T09:41:01.978Z,26.2
2019-02-06T09:44:10.852Z,26.2
2019-02-06T09:47:16.697Z,26.2
2019-02-06T09:50:22.673Z,26.2
2019-02-06T09:53:28.522Z,26.2
2019-02-06T09:56:34.501Z,26.1
2019-02-06T09:59:40.533Z,26.1
2019-02-06T10:02:46.371Z,26.1
2019-02-06T10:05:54.306Z,26.1
2019-02-06T10:09:00.182Z,26.1
2019-02-06T10:12:06.276Z,26.1
2019-02-06T10:15:16.277Z,26.1
2019-02-06T10:18:24.809Z,26.1
2019-02-06T10:21:30.708Z,26.1
2019-02-06T10:24:36.620Z,26.2
2019-02-06T10:27:42.815Z,26.2
2019-02-06T10:30:48.843Z,26.2
2019-02-06T10:33:57.248Z,26.2
2019-02-06T10:37:04.110Z,26.2
2019-02-06T10:40:10.057Z,26.2
2019-02-06T10:43:15.997Z,26.2
2019-02-06T10:46:37.669Z,26.2
2019-02-06T10:49:44.296Z,26.2
2019-02-06T10:52:50.294Z,26.2
2019-02-06T10:55:56.167Z,26.3
2019-02-06T10:59:03.097Z,26.3
2019-02-06T11:02:08.996Z,26.3
2019-02-06T11:05:15.031Z,26.2
2019-02-06T11:08:20.952Z,26.2
2019-02-06T11:11:26.827Z,26.3
2019-02-06T11:14:32.909Z,26.2
2019-02-06T11:17:38.868Z,26.3
2019-02-06T11:20:47.195Z,26.3
2019-02-06T11:23:53.157Z,26.3
2019-02-06T11:26:59.270Z,26.3
2019-02-06T11:30:05.232Z,26.3
2019-02-06T11:33:15.134Z,26.3
2019-02-06T11:36:23.983Z,26.4
2019-02-06T11:39:31.310Z,26.3
2019-02-06T11:42:39.342Z,26.4
2019-02-06T11:45:45.321Z,26.4
2019-02-06T11:48:51.408Z,26.5
2019-02-06T11:51:57.343Z,26.4
2019-02-06T11:55:04.007Z,26.5
2019-02-06T11:58:14.030Z,26.5
2019-02-06T12:01:20.970Z,26.6
2019-02-06T12:04:30.165Z,26.5
2019-02-06T12:07:37.329Z,26.5
2019-02-06T12:10:44.587Z,26.5
2019-02-06T12:13:53.228Z,26.6
2019-02-06T12:16:59.235Z,26.6
2019-02-06T12:20:06.619Z,26.6
2019-02-06T12:23:12.607Z,26.6
2019-02-06T12:26:32.544Z,26.6
2019-02-06T12:29:38.467Z,26.5
2019-02-06T12:32:51.896Z,26.6
2019-02-06T12:35:58.286Z,26.6
2019-02-06T12:39:06.358Z,26.6
2019-02-06T12:42:25.271Z,26.6
2019-02-06T12:45:31.244Z,26.6
2019-02-06T12:48:37.127Z,26.7
2019-02-06T12:51:43.179Z,26.6
2019-02-06T12:54:49.172Z,26.6
2019-02-06T12:57:55.070Z,26.5
2019-02-06T13:01:01.987Z,26.6
2019-02-06T13:04:07.898Z,26.6
2019-02-06T13:07:13.977Z,26.5
2019-02-06T13:10:33.161Z,26.5
2019-02-06T13:13:41.747Z,26.6
2019-02-06T13:16:51.249Z,26.6
2019-02-06T13:19:57.326Z,26.6
2019-02-06T13:23:05.887Z,26.6
2019-02-06T13:26:15.975Z,26.6
2019-02-06T13:29:23.954Z,26.7
2019-02-06T13:32:29.913Z,26.7
2019-02-06T13:35:38.025Z,26.7
2019-02-06T13:39:03.279Z,26.8
2019-02-06T13:42:16.976Z,26.8
2019-02-06T13:45:23.168Z,26.7
2019-02-06T13:48:29.066Z,26.7
2019-02-06T13:51:38.336Z,26.7
2019-02-06T13:54:45.341Z,26.7
2019-02-06T13:57:51.310Z,26.8
2019-02-06T14:00:59.120Z,26.8
2019-02-06T14:04:05.071Z,26.7
2019-02-06T14:07:11.256Z,26.7
2019-02-06T14:10:19.750Z,26.7
2019-02-06T14:13:25.767Z,26.7
2019-02-06T14:16:32.736Z,26.7
2019-02-06T14:19:40.705Z,26.7
2019-02-06T14:22:47.946Z,26.7
2019-02-06T14:25:57.144Z,26.7
2019-02-06T14:29:05.606Z,26.7
2019-02-06T14:32:11.920Z,26.7
2019-02-06T14:35:22.091Z,26.7
2019-02-06T14:38:28.156Z,26.6
2019-02-06T14:41:34.061Z,26.5
2019-02-06T14:44:41.148Z,26.5
2019-02-06T14:47:47.083Z,26.5
2019-02-06T14:50:52.978Z,26.5
2019-02-06T14:53:58.933Z,26.4
2019-02-06T14:57:04.939Z,26.3
2019-02-06T15:00:11.175Z,26.3
2019-02-06T15:03:17.065Z,26.3
2019-02-06T15:06:24.542Z,26.4
2019-02-06T15:09:30.384Z,26.4
2019-02-06T15:12:36.322Z,26.4
2019-02-06T15:15:42.234Z,26.4
2019-02-06T15:18:48.180Z,26.4
2019-02-06T15:21:54.200Z,26.3
2019-02-06T15:25:00.191Z,26.2
2019-02-06T15:28:07.935Z,26.2
2019-02-06T15:31:13.857Z,26.1
2019-02-06T15:34:19.751Z,26.2
2019-02-06T15:37:25.635Z,26.1
2019-02-06T15:40:31.497Z,26.1
2019-02-06T15:43:37.441Z,26.1
2019-02-06T15:46:43.308Z,26.1
2019-02-06T15:49:49.241Z,26
2019-02-06T15:52:55.099Z,26
2019-02-06T15:56:01.113Z,26
2019-02-06T15:59:09.101Z,26
2019-02-06T16:02:15.451Z,26
2019-02-06T16:05:21.495Z,26
2019-02-06T16:08:30.312Z,25.9
2019-02-06T16:11:42.131Z,26
2019-02-06T16:14:48.515Z,25.9
2019-02-06T16:17:54.811Z,25.9
2019-02-06T16:21:00.772Z,25.8
2019-02-06T16:24:06.759Z,25.7
2019-02-06T16:27:12.614Z,25.7
2019-02-06T16:30:18.592Z,25.7
2019-02-06T16:33:24.473Z,25.8
2019-02-06T16:36:30.388Z,25.8
2019-02-06T16:39:36.342Z,25.7
2019-02-06T16:42:44.090Z,25.7
2019-02-06T16:45:50.231Z,25.7
2019-02-06T16:48:56.089Z,25.7
2019-02-06T16:52:02.044Z,25.7
2019-02-06T16:55:07.954Z,25.7
2019-02-06T16:58:13.862Z,25.7
2019-02-06T17:01:20.051Z,25.7
2019-02-06T17:04:27.080Z,25.6
2019-02-06T17:07:33.442Z,25.6
2019-02-06T17:10:39.331Z,25.6
2019-02-06T17:13:45.417Z,25.6
2019-02-06T17:16:51.336Z,25.5
2019-02-06T17:19:57.339Z,25.5
2019-02-06T17:23:03.299Z,25.5
2019-02-06T17:26:09.352Z,25.5
2019-02-06T17:29:15.401Z,25.5
2019-02-06T17:32:21.364Z,25.5
2019-02-06T17:35:28.319Z,25.5
2019-02-06T17:38:34.304Z,25.5
2019-02-06T17:41:40.307Z,25.5
2019-02-06T17:44:46.270Z,25.5
2019-02-06T17:47:52.293Z,25.4
2019-02-06T17:50:58.140Z,25.3
2019-02-06T17:54:04.199Z,25.3
2019-02-06T17:57:11.681Z,25.3
2019-02-06T18:00:17.773Z,25.3
2019-02-06T18:03:23.677Z,25.3
2019-02-06T18:06:29.713Z,25.3
2019-02-06T18:09:35.763Z,25.2
2019-02-06T18:12:41.958Z,25.2
2019-02-06T18:15:47.817Z,25.1
2019-02-06T18:18:54.048Z,25.2
2019-02-06T18:22:00.050Z,25.2
2019-02-06T18:25:06.061Z,25.1
2019-02-06T18:28:13.758Z,25.1
2019-02-06T18:31:19.910Z,25.1
2019-02-06T18:34:26.070Z,25.1
2019-02-06T18:37:34.086Z,25.1
2019-02-06T18:40:48.975Z,25.1
2019-02-06T18:43:55.087Z,25
2019-02-06T18:47:01.223Z,25
2019-02-06T18:50:07.296Z,25
2019-02-06T18:53:13.297Z,25
2019-02-06T18:56:19.361Z,25
2019-02-06T18:59:25.477Z,25
2019-02-06T19:02:34.833Z,24.9
2019-02-06T19:05:44.221Z,24.9
2019-02-06T19:08:50.521Z,24.9
2019-02-06T19:11:56.634Z,24.9
2019-02-06T19:15:02.563Z,24.9
2019-02-06T19:18:08.792Z,24.9
2019-02-06T19:21:14.967Z,24.9
2019-02-06T19:24:21.099Z,24.9
2019-02-06T19:27:27.184Z,24.8
2019-02-06T19:30:33.367Z,24.8
2019-02-06T19:33:39.314Z,24.8
2019-02-06T19:36:45.343Z,24.8
2019-02-06T19:39:51.359Z,24.8
2019-02-06T19:43:00.323Z,24.8
2019-02-06T19:46:09.541Z,24.7
2019-02-06T19:49:15.749Z,24.7
2019-02-06T19:52:21.759Z,24.7
2019-02-06T19:55:29.521Z,24.7
2019-02-06T19:58:35.557Z,24.7
2019-02-06T20:01:44.749Z,24.7
2019-02-06T20:04:52.565Z,24.7
2019-02-06T20:07:58.806Z,24.6
2019-02-06T20:11:04.791Z,24.6
2019-02-06T20:14:12.342Z,24.6
2019-02-06T20:17:18.521Z,24.5
2019-02-06T20:20:27.048Z,24.4
2019-02-06T20:23:33.233Z,24.4
2019-02-06T20:26:42.608Z,24.3
2019-02-06T20:29:48.738Z,24.3
2019-02-06T20:32:54.809Z,24.2
2019-02-06T20:36:00.856Z,24.2
2019-02-06T20:39:06.976Z,24.1
2019-02-06T20:42:13.358Z,24.1
2019-02-06T20:45:19.349Z,24
2019-02-06T20:48:25.616Z,24
2019-02-06T20:51:31.574Z,23.9
2019-02-06T20:54:37.687Z,23.9
2019-02-06T20:57:43.752Z,23.8
2019-02-06T21:00:49.721Z,23.8
2019-02-06T21:03:56.941Z,23.7
2019-02-06T21:07:03.007Z,23.7
2019-02-06T21:10:08.962Z,23.7
2019-02-06T21:13:18.770Z,23.6
2019-02-06T21:16:37.855Z,23.6
2019-02-06T21:19:43.870Z,23.5
2019-02-06T21:22:49.899Z,23.5
2019-02-06T21:25:57.109Z,23.5
2019-02-06T21:29:03.128Z,23.4
2019-02-06T21:32:09.079Z,23.4
2019-02-06T21:35:15.222Z,23.3
2019-02-06T21:38:21.253Z,23.3
2019-02-06T21:41:27.357Z,23.3
2019-02-06T21:44:33.485Z,23.3
2019-02-06T21:47:39.710Z,23.2
2019-02-06T21:50:45.743Z,23.2
2019-02-06T21:53:51.814Z,23.2
2019-02-06T21:56:59.186Z,23.2
2019-02-06T22:00:05.322Z,23.1
2019-02-06T22:03:11.439Z,23.1
2019-02-06T22:06:17.451Z,23.1
2019-02-06T22:09:23.664Z,23.1
2019-02-06T22:12:29.660Z,23.1
2019-02-06T22:15:35.664Z,23
2019-02-06T22:18:43.349Z,23
2019-02-06T22:21:49.409Z,23
2019-02-06T22:24:55.463Z,23
2019-02-06T22:28:01.625Z,23
2019-02-06T22:31:07.834Z,22.9
2019-02-06T22:34:13.792Z,22.9
2019-02-06T22:37:19.856Z,22.9
2019-02-06T22:40:25.876Z,22.8
2019-02-06T22:43:32.005Z,22.9
2019-02-06T22:46:37.885Z,22.9
2019-02-06T22:49:45.937Z,22.8
2019-02-06T22:52:51.991Z,22.8
2019-02-06T22:55:58.166Z,22.8
2019-02-06T22:59:04.252Z,22.8
2019-02-06T23:02:10.344Z,22.8
2019-02-06T23:05:16.419Z,22.8
2019-02-06T23:08:22.425Z,22.7
2019-02-06T23:11:28.848Z,22.7
2019-02-06T23:14:35.037Z,22.7
2019-02-06T23:17:40.959Z,22.7
2019-02-06T23:20:48.314Z,22.7
2019-02-06T23:23:54.256Z,22.7
2019-02-06T23:27:00.320Z,22.6
2019-02-06T23:30:06.340Z,22.6
2019-02-06T23:33:12.333Z,22.6
2019-02-06T23:36:18.309Z,22.6
2019-02-06T23:39:24.292Z,22.6
2019-02-06T23:42:32.489Z,22.5
2019-02-06T23:45:38.561Z,22.6
2019-02-06T23:48:44.452Z,22.5
2019-02-06T23:51:50.554Z,22.5
2019-02-06T23:54:56.619Z,22.5
2019-02-06T23:58:05.601Z,22.5
